Terminal Aerodrome Forecast
Issued by NWS El Paso, TX

Current Version | Previous Version | Text Only | Print | Product List | Glossary On
Versions: 1 2 3 4 5 6 7 8 9 10 11 12 13
000
FTUS44 KEPZ 281730
TAFELP
TAF
KELP 281730Z 2818/2918 VRB03KT P6SM FEW090
     FM282100 10010G20KT P6SM SCT100
     FM290300 14008KT P6SM FEW080
     FM291700 15007KT P6SM SCT070 SCT250=

USA.gov is the U.S. government's official web portal to all federal, state and local government web resources and services.